AirNav   Bose ProFlight Series 2 Headset
 
 1452 users online  

63MI Providence Hospital Heliport
Novi, Michigan, USA

GOING TO NOVI?


FAA INFORMATION EFFECTIVE 02 JANUARY 2020

Location

FAA Identifier: 63MI
Lat/Long: 42-29-10.4000N 083-31-12.2600W
42-29.173333N 083-31.204333W
42.4862222,-83.5200722
(estimated)
Elevation: 970 ft. / 296 m (estimated)
From city: 2 miles SE of NOVI, MI
Time zone: UTC -5 (UTC -4 during Daylight Saving Time)
Zip code: 48374

Heliport Operations

Heliport use: Private use, MEDICAL USE.
Activation date: 03/2007
Control tower: no
ARTCC: CLEVELAND CENTER
FSS: LANSING FLIGHT SERVICE STATION
Attendance: UNATNDD
Segmented circle: no
Lights: FOR PERIMETER LGTS CALL THE ER AT 248-465-4210.

Heliport Communications

WX ASOS at PTK (12 nm N): 125.025 (248-886-8551)
WX ASOS at YIP (15 nm S): 132.35 (734-961-6843)
WX AWOS-3 at VLL (16 nm E): 119.475 (248-288-4649)
WX ASOS at DTW (18 nm SE): 133.675 (734-955-5015)
WX ASOS at ARB (19 nm SW): 134.55 (734-668-7173)

Nearby radio navigation aids

VOR radial/distance  VOR name  Freq  Var
SVMr038/5.7SALEM VORTAC114.3003W
DXOr343/17.7DETROIT VOR/DME113.4006W
CRLr357/26.4CARLETON VOR/DME115.7003W
FNTr167/30.5FLINT VORTAC116.9006W
YQGr301/33.8WINDSOR VOR/DME113.8006W

 
NDB name  Hdg/Dist  Freq  Var  ID
GROSSE ILE332/28.341907WRYS .-. -.-- ...
TECUMSEH037/31.623906WTCU - -.-. ..-

Heliport Services

Runway Information

Helipad H1

Dimensions: 50 x 50 ft. / 15 x 15 m
Surface: concrete
Runway edge lights: PERI
Latitude: 42-29.173333N
Longitude: 083-31.204333W
Elevation: 970.0 ft.
Traffic pattern: leftleft

Heliport Ownership and Management from official FAA records

Ownership: Privately-owned
Owner: PROVIDENCE HOSPITAL & MEDICAL CTR
47601 GRAND RIVER AVE STE A-208
NOVI, MI 48375
Phone 248-465-4173
Manager: CAROL GLICK
47601 GRAND RIVER AVE STE A-208
NOVI, MI 48375
Phone 248-465-4173

Additional Remarks

FOR CD CTC DETROIT APCH AT 800-499-8181.

Instrument Procedures

There are no published instrument procedures at 63MI.

Some nearby airports with instrument procedures:

Y47 - Oakland Southwest Airport (5 nm W)
1D2 - Canton-Plymouth-Mettetal Airport (9 nm S)
KPTK - Oakland County International Airport (12 nm N)
KYIP - Willow Run Airport (15 nm S)
KVLL - Oakland/Troy Airport (16 nm E)
KDTW - Detroit Metropolitan Wayne County Airport (18 nm SE)
KARB - Ann Arbor Municipal Airport (19 nm SW)
 
Loc | Ops | Rwys | IFR | FBO | Links
Com | Nav | Svcs | Stats | Notes
Area around 63MI (Providence Hospital Heliport)
 
Road maps at: MapQuest Bing Google
 
Aerial photo
No photo
 
Sectional chart

 
Airport distance calculator
Flying to Providence Hospital Heliport? Find the distance to fly.

From to 63MI

Sunrise and sunset
Times for 23-Jan-2020
 Local
(UTC-5)
 Zulu
(UTC)
Morning civil twilight07:2712:27
Sunrise07:5712:57
Sunset17:3522:35
Evening civil twilight18:0523:05

Current date and time
Zulu (UTC)  24-Jan-2020 00:20:46
Local (UTC-5)  23-Jan-2020 19:20:46
 
METAR
KPTK 
12nm NE 
232353Z 11006KT 10SM OVC080 01/M04 A3015 RMK AO2 SLP221 T00111044 10022 20011 53002
KYIP 
15nm S 
232353Z 10005KT 10SM SCT100 02/M04 A3017 RMK AO2 SLP223 T00221039 10033 20022 53001
KVLL 
16nm E 
232355Z AUTO 07004KT 10SM OVC075 02/M03 A3019 RMK AO2 T00171028 10028 20017
KDTW 
17nm SE 
232353Z 08004KT 8SM OVC090 02/M04 A3018 RMK AO2 SLP228 T00171039 10022 20017 53002
KARB 
19nm SW 
734-668-7173
232353Z 13007KT 10SM BKN095 BKN110 01/M05 A3015 RMK AO2 SLP221 T00111050 10028 20011 50003
KOZW 
21nm W 
232355Z AUTO 11006KT 10SM SCT075 OVC095 02/M05 A3013 RMK AO2 T00201048 10030 20016
KDET 
23nm E 
232353Z 14005KT 10SM OVC085 01/M03 A3019 RMK AO2 SLP231 T00111028 10028 20011 52005
TAF
KPTK 
12nm NE 
231725Z 2318/2418 16007KT P6SM OVC120 FM240000 12005KT P6SM OVC080 FM240700 09005KT P6SM OVC050 TEMPO 2408/2412 P6SM -RASN OVC025 FM241500 08010KT 5SM -RA BR OVC025
KYIP 
15nm S 
232139Z 2322/2418 14007KT P6SM OVC100 FM240000 12005KT P6SM OVC080 FM240700 09005KT P6SM OVC050 TEMPO 2408/2412 P6SM -SHRA OVC025 FM241400 08010KT 5SM -RA BR OVC025
KDTW 
17nm SE 
232139Z 2322/2424 15007KT P6SM OVC100 FM240000 12005KT P6SM OVC080 FM240700 09005KT P6SM OVC050 TEMPO 2408/2412 P6SM -SHRA OVC025 FM241400 08010KT 5SM -RA BR OVC025 FM242100 09008KT 2SM -RA BR OVC015
NOTAMs
Click for the latest NOTAMs
NOTAMs are issued by the DoD/FAA and will open in a separate window not controlled by AirNav.

 

 
 

Would you like to see your business listed on this page?

 If your business provides an interesting product or service to pilots, flight crews, aircraft, or users of the Providence Hospital Heliport, you should consider listing it here.  To start the listing process, click on the button below
 
Add a business
 

Other Pages about Providence Hospital Heliport

Update a link
 
Copyright © AirNav, LLC. All rights reserved. Privacy Policy  Contact